sensor_id;sensor_type;location;lat;lon;timestamp;temperature;humidity
55036;DHT22;40936;53.008;6.556;2022-09-21T00:00:37;12.40;99.90
55036;DHT22;40936;53.008;6.556;2022-09-21T00:03:03;12.30;99.90
55036;DHT22;40936;53.008;6.556;2022-09-21T00:05:30;12.30;99.90
55036;DHT22;40936;53.008;6.556;2022-09-21T00:07:59;12.30;99.90
55036;DHT22;40936;53.008;6.556;2022-09-21T00:10:25;12.30;99.90
55036;DHT22;40936;53.008;6.556;2022-09-21T00:12:51;12.30;99.90
55036;DHT22;40936;53.008;6.556;2022-09-21T00:15:17;12.30;99.90
55036;DHT22;40936;53.008;6.556;2022-09-21T00:17:45;12.20;99.90
55036;DHT22;40936;53.008;6.556;2022-09-21T00:20:13;12.20;99.90
55036;DHT22;40936;53.008;6.556;2022-09-21T00:22:39;12.20;99.90
55036;DHT22;40936;53.008;6.556;2022-09-21T00:25:07;12.20;99.90
55036;DHT22;40936;53.008;6.556;2022-09-21T00:27:33;12.20;99.90
55036;DHT22;40936;53.008;6.556;2022-09-21T00:30:00;12.10;99.90
55036;DHT22;40936;53.008;6.556;2022-09-21T00:32:28;12.10;99.90
55036;DHT22;40936;53.008;6.556;2022-09-21T00:34:56;12.10;99.90
55036;DHT22;40936;53.008;6.556;2022-09-21T00:37:23;12.10;99.90
55036;DHT22;40936;53.008;6.556;2022-09-21T00:39:50;12.00;99.90
55036;DHT22;40936;53.008;6.556;2022-09-21T00:42:23;12.10;99.90
55036;DHT22;40936;53.008;6.556;2022-09-21T00:44:49;12.00;99.90
55036;DHT22;40936;53.008;6.556;2022-09-21T00:47:18;12.00;99.90
55036;DHT22;40936;53.008;6.556;2022-09-21T00:49:49;12.00;99.90
55036;DHT22;40936;53.008;6.556;2022-09-21T00:52:17;12.00;99.90
55036;DHT22;40936;53.008;6.556;2022-09-21T00:54:51;11.90;99.90
55036;DHT22;40936;53.008;6.556;2022-09-21T00:57:20;11.90;99.90
55036;DHT22;40936;53.008;6.556;2022-09-21T00:59:47;11.90;99.90
55036;DHT22;40936;53.008;6.556;2022-09-21T01:02:16;11.90;99.90
55036;DHT22;40936;53.008;6.556;2022-09-21T01:04:43;11.90;99.90
55036;DHT22;40936;53.008;6.556;2022-09-21T01:07:12;11.80;99.90
55036;DHT22;40936;53.008;6.556;2022-09-21T01:09:41;11.80;99.90
55036;DHT22;40936;53.008;6.556;2022-09-21T01:26:40;11.80;99.90
55036;DHT22;40936;53.008;6.556;2022-09-21T01:32:15;11.80;99.90
55036;DHT22;40936;53.008;6.556;2022-09-21T01:35:08;11.70;99.90
55036;DHT22;40936;53.008;6.556;2022-09-21T01:37:50;11.70;99.90
55036;DHT22;40936;53.008;6.556;2022-09-21T01:40:27;11.70;99.90
55036;DHT22;40936;53.008;6.556;2022-09-21T01:42:56;11.70;99.90
55036;DHT22;40936;53.008;6.556;2022-09-21T01:45:28;11.70;99.90
55036;DHT22;40936;53.008;6.556;2022-09-21T01:47:56;11.70;99.90
55036;DHT22;40936;53.008;6.556;2022-09-21T01:50:27;11.70;99.90
55036;DHT22;40936;53.008;6.556;2022-09-21T01:55:44;11.60;99.90
55036;DHT22;40936;53.008;6.556;2022-09-21T01:58:19;11.60;99.90
55036;DHT22;40936;53.008;6.556;2022-09-21T02:00:49;11.50;99.90
55036;DHT22;40936;53.008;6.556;2022-09-21T02:03:32;11.50;99.90
55036;DHT22;40936;53.008;6.556;2022-09-21T02:06:00;11.50;99.90
55036;DHT22;40936;53.008;6.556;2022-09-21T02:08:29;11.90;99.90
55036;DHT22;40936;53.008;6.556;2022-09-21T02:10:59;11.40;99.90
55036;DHT22;40936;53.008;6.556;2022-09-21T02:13:30;11.40;99.90
55036;DHT22;40936;53.008;6.556;2022-09-21T02:26:46;11.40;99.90
55036;DHT22;40936;53.008;6.556;2022-09-21T02:29:24;11.40;99.90
55036;DHT22;40936;53.008;6.556;2022-09-21T02:35:08;11.40;99.90
55036;DHT22;40936;53.008;6.556;2022-09-21T02:37:52;11.30;99.90
55036;DHT22;40936;53.008;6.556;2022-09-21T02:40:41;11.30;99.90
55036;DHT22;40936;53.008;6.556;2022-09-21T02:43:28;11.30;99.90
55036;DHT22;40936;53.008;6.556;2022-09-21T02:46:42;11.30;99.90
55036;DHT22;40936;53.008;6.556;2022-09-21T02:48:52;11.30;99.90
55036;DHT22;40936;53.008;6.556;2022-09-21T02:51:28;11.30;99.90
55036;DHT22;40936;53.008;6.556;2022-09-21T02:53:57;11.30;99.90
55036;DHT22;40936;53.008;6.556;2022-09-21T02:56:26;11.30;99.90
55036;DHT22;40936;53.008;6.556;2022-09-21T02:58:54;11.60;99.90
55036;DHT22;40936;53.008;6.556;2022-09-21T03:01:22;12.70;99.90
55036;DHT22;40936;53.008;6.556;2022-09-21T03:03:49;11.60;99.90
55036;DHT22;40936;53.008;6.556;2022-09-21T03:06:15;11.20;99.90
55036;DHT22;40936;53.008;6.556;2022-09-21T03:08:40;10.70;99.90
55036;DHT22;40936;53.008;6.556;2022-09-21T03:11:07;11.20;99.90
55036;DHT22;40936;53.008;6.556;2022-09-21T03:13:32;11.30;99.90
55036;DHT22;40936;53.008;6.556;2022-09-21T03:16:04;11.20;99.90
55036;DHT22;40936;53.008;6.556;2022-09-21T03:18:30;11.10;99.90
55036;DHT22;40936;53.008;6.556;2022-09-21T03:20:56;11.10;99.90
55036;DHT22;40936;53.008;6.556;2022-09-21T03:23:22;11.10;99.90
55036;DHT22;40936;53.008;6.556;2022-09-21T03:25:48;12.70;99.90
55036;DHT22;40936;53.008;6.556;2022-09-21T03:28:14;12.10;99.90
55036;DHT22;40936;53.008;6.556;2022-09-21T03:30:41;11.40;99.90
55036;DHT22;40936;53.008;6.556;2022-09-21T03:33:07;11.30;99.90
55036;DHT22;40936;53.008;6.556;2022-09-21T03:35:33;11.50;99.90
55036;DHT22;40936;53.008;6.556;2022-09-21T03:37:59;10.90;99.90
55036;DHT22;40936;53.008;6.556;2022-09-21T03:40:25;10.90;99.90
55036;DHT22;40936;53.008;6.556;2022-09-21T03:42:52;10.90;99.90
55036;DHT22;40936;53.008;6.556;2022-09-21T03:45:18;11.00;99.90
55036;DHT22;40936;53.008;6.556;2022-09-21T03:47:46;11.50;99.90
55036;DHT22;40936;53.008;6.556;2022-09-21T03:50:13;11.00;99.90
55036;DHT22;40936;53.008;6.556;2022-09-21T03:52:39;11.00;99.90
55036;DHT22;40936;53.008;6.556;2022-09-21T03:55:07;11.00;99.90
55036;DHT22;40936;53.008;6.556;2022-09-21T03:57:34;11.00;99.90
55036;DHT22;40936;53.008;6.556;2022-09-21T04:00:02;10.90;99.90
55036;DHT22;40936;53.008;6.556;2022-09-21T04:02:28;10.90;99.90
55036;DHT22;40936;53.008;6.556;2022-09-21T04:04:54;11.10;99.90
55036;DHT22;40936;53.008;6.556;2022-09-21T04:07:20;11.00;99.90
55036;DHT22;40936;53.008;6.556;2022-09-21T04:09:46;10.90;99.90
55036;DHT22;40936;53.008;6.556;2022-09-21T04:12:11;10.90;99.90
55036;DHT22;40936;53.008;6.556;2022-09-21T04:14:37;10.90;99.90
55036;DHT22;40936;53.008;6.556;2022-09-21T04:17:03;10.90;99.90
55036;DHT22;40936;53.008;6.556;2022-09-21T04:19:29;11.60;99.90
55036;DHT22;40936;53.008;6.556;2022-09-21T04:21:55;10.80;99.90
55036;DHT22;40936;53.008;6.556;2022-09-21T04:24:21;11.10;99.90
55036;DHT22;40936;53.008;6.556;2022-09-21T04:26:47;12.40;99.90
55036;DHT22;40936;53.008;6.556;2022-09-21T04:29:13;11.40;99.90
55036;DHT22;40936;53.008;6.556;2022-09-21T04:31:40;10.70;99.90
55036;DHT22;40936;53.008;6.556;2022-09-21T04:34:06;11.30;99.90
55036;DHT22;40936;53.008;6.556;2022-09-21T04:36:31;10.70;99.90
55036;DHT22;40936;53.008;6.556;2022-09-21T04:38:59;10.70;99.90
55036;DHT22;40936;53.008;6.556;2022-09-21T04:41:25;12.00;99.90
55036;DHT22;40936;53.008;6.556;2022-09-21T04:43:51;10.70;99.90
55036;DHT22;40936;53.008;6.556;2022-09-21T04:46:19;10.70;99.90
55036;DHT22;40936;53.008;6.556;2022-09-21T04:48:45;11.10;99.90
55036;DHT22;40936;53.008;6.556;2022-09-21T04:51:13;11.50;99.90
55036;DHT22;40936;53.008;6.556;2022-09-21T04:53:40;10.60;99.90
55036;DHT22;40936;53.008;6.556;2022-09-21T04:56:07;10.60;99.90
55036;DHT22;40936;53.008;6.556;2022-09-21T04:58:33;11.10;99.90
55036;DHT22;40936;53.008;6.556;2022-09-21T05:00:59;10.50;99.90
55036;DHT22;40936;53.008;6.556;2022-09-21T05:03:26;10.80;99.90
55036;DHT22;40936;53.008;6.556;2022-09-21T05:05:54;10.50;99.90
55036;DHT22;40936;53.008;6.556;2022-09-21T05:08:20;10.50;99.90
55036;DHT22;40936;53.008;6.556;2022-09-21T05:11:07;11.50;99.90
55036;DHT22;40936;53.008;6.556;2022-09-21T05:13:34;10.40;99.90
55036;DHT22;40936;53.008;6.556;2022-09-21T05:16:00;10.50;99.90
55036;DHT22;40936;53.008;6.556;2022-09-21T05:18:26;10.50;99.90
55036;DHT22;40936;53.008;6.556;2022-09-21T05:20:59;10.50;99.90
55036;DHT22;40936;53.008;6.556;2022-09-21T05:23:27;11.00;99.90
55036;DHT22;40936;53.008;6.556;2022-09-21T05:25:56;12.10;99.90
55036;DHT22;40936;53.008;6.556;2022-09-21T05:28:23;11.00;99.90
55036;DHT22;40936;53.008;6.556;2022-09-21T05:36:47;10.50;99.90
55036;DHT22;40936;53.008;6.556;2022-09-21T05:39:14;10.50;99.90
55036;DHT22;40936;53.008;6.556;2022-09-21T05:41:40;10.50;99.90
55036;DHT22;40936;53.008;6.556;2022-09-21T05:44:08;10.50;99.90
55036;DHT22;40936;53.008;6.556;2022-09-21T05:46:38;10.50;99.90
55036;DHT22;40936;53.008;6.556;2022-09-21T05:49:12;10.60;99.90
55036;DHT22;40936;53.008;6.556;2022-09-21T05:54:40;10.60;99.90
55036;DHT22;40936;53.008;6.556;2022-09-21T06:00:16;10.70;99.90
55036;DHT22;40936;53.008;6.556;2022-09-21T06:05:14;10.70;99.90
55036;DHT22;40936;53.008;6.556;2022-09-21T06:07:40;10.70;99.90
55036;DHT22;40936;53.008;6.556;2022-09-21T06:10:10;10.80;99.90
55036;DHT22;40936;53.008;6.556;2022-09-21T06:12:36;10.80;99.90
55036;DHT22;40936;53.008;6.556;2022-09-21T06:15:06;12.50;99.90
55036;DHT22;40936;53.008;6.556;2022-09-21T06:17:32;10.90;99.90
55036;DHT22;40936;53.008;6.556;2022-09-21T06:19:58;11.10;99.90
55036;DHT22;40936;53.008;6.556;2022-09-21T06:22:24;12.00;99.90
55036;DHT22;40936;53.008;6.556;2022-09-21T06:24:49;11.00;99.90
55036;DHT22;40936;53.008;6.556;2022-09-21T06:27:15;11.20;99.90
55036;DHT22;40936;53.008;6.556;2022-09-21T06:29:41;11.10;99.90
55036;DHT22;40936;53.008;6.556;2022-09-21T06:32:06;11.70;99.90
55036;DHT22;40936;53.008;6.556;2022-09-21T06:34:32;11.30;99.90
55036;DHT22;40936;53.008;6.556;2022-09-21T06:37:01;13.10;99.90
55036;DHT22;40936;53.008;6.556;2022-09-21T06:39:27;11.40;99.90
55036;DHT22;40936;53.008;6.556;2022-09-21T06:41:53;11.50;99.90
55036;DHT22;40936;53.008;6.556;2022-09-21T06:44:19;11.40;99.90
55036;DHT22;40936;53.008;6.556;2022-09-21T06:46:45;11.60;99.90
55036;DHT22;40936;53.008;6.556;2022-09-21T06:49:10;12.40;99.90
55036;DHT22;40936;53.008;6.556;2022-09-21T06:51:36;11.80;99.90
55036;DHT22;40936;53.008;6.556;2022-09-21T06:54:02;11.70;99.90
55036;DHT22;40936;53.008;6.556;2022-09-21T06:56:28;11.90;99.90
55036;DHT22;40936;53.008;6.556;2022-09-21T06:58:54;13.40;99.90
55036;DHT22;40936;53.008;6.556;2022-09-21T07:01:20;12.00;99.90
55036;DHT22;40936;53.008;6.556;2022-09-21T07:03:49;13.10;99.90
55036;DHT22;40936;53.008;6.556;2022-09-21T07:06:16;14.00;99.90
55036;DHT22;40936;53.008;6.556;2022-09-21T07:08:45;12.30;99.90
55036;DHT22;40936;53.008;6.556;2022-09-21T07:11:11;11.20;99.90
55036;DHT22;40936;53.008;6.556;2022-09-21T07:13:38;12.50;99.90
55036;DHT22;40936;53.008;6.556;2022-09-21T07:16:06;12.60;99.90
55036;DHT22;40936;53.008;6.556;2022-09-21T07:18:33;12.60;99.90
55036;DHT22;40936;53.008;6.556;2022-09-21T07:21:06;12.70;99.90
55036;DHT22;40936;53.008;6.556;2022-09-21T07:23:32;12.80;99.90
55036;DHT22;40936;53.008;6.556;2022-09-21T07:26:04;13.00;99.90
55036;DHT22;40936;53.008;6.556;2022-09-21T07:28:30;13.10;99.90
55036;DHT22;40936;53.008;6.556;2022-09-21T07:30:57;13.20;99.90
55036;DHT22;40936;53.008;6.556;2022-09-21T07:33:24;13.30;99.90
55036;DHT22;40936;53.008;6.556;2022-09-21T07:35:51;13.50;99.90
55036;DHT22;40936;53.008;6.556;2022-09-21T07:38:18;15.10;99.90
55036;DHT22;40936;53.008;6.556;2022-09-21T07:40:43;16.70;99.90
55036;DHT22;40936;53.008;6.556;2022-09-21T07:43:09;18.30;99.90
55036;DHT22;40936;53.008;6.556;2022-09-21T07:45:35;19.40;99.90
55036;DHT22;40936;53.008;6.556;2022-09-21T07:48:05;20.50;99.90
55036;DHT22;40936;53.008;6.556;2022-09-21T07:50:31;21.30;99.90
55036;DHT22;40936;53.008;6.556;2022-09-21T07:52:59;22.20;99.90
55036;DHT22;40936;53.008;6.556;2022-09-21T07:55:25;23.10;99.90
55036;DHT22;40936;53.008;6.556;2022-09-21T07:57:51;23.90;99.90
55036;DHT22;40936;53.008;6.556;2022-09-21T08:00:35;24.50;99.90
55036;DHT22;40936;53.008;6.556;2022-09-21T08:03:03;25.30;99.90
55036;DHT22;40936;53.008;6.556;2022-09-21T08:05:29;25.90;99.90
55036;DHT22;40936;53.008;6.556;2022-09-21T08:07:56;26.40;99.90
55036;DHT22;40936;53.008;6.556;2022-09-21T08:10:22;26.80;99.90
55036;DHT22;40936;53.008;6.556;2022-09-21T08:12:49;27.40;99.90
55036;DHT22;40936;53.008;6.556;2022-09-21T08:15:14;27.80;99.90
55036;DHT22;40936;53.008;6.556;2022-09-21T08:17:42;28.30;99.90
55036;DHT22;40936;53.008;6.556;2022-09-21T08:20:09;28.60;99.90
55036;DHT22;40936;53.008;6.556;2022-09-21T08:22:34;29.20;99.90
55036;DHT22;40936;53.008;6.556;2022-09-21T08:25:00;28.90;99.90
55036;DHT22;40936;53.008;6.556;2022-09-21T08:27:27;29.00;99.90
55036;DHT22;40936;53.008;6.556;2022-09-21T08:29:52;29.70;99.90
55036;DHT22;40936;53.008;6.556;2022-09-21T08:32:18;29.60;99.90
55036;DHT22;40936;53.008;6.556;2022-09-21T08:34:44;30.10;99.90
55036;DHT22;40936;53.008;6.556;2022-09-21T08:37:09;30.30;99.90
55036;DHT22;40936;53.008;6.556;2022-09-21T08:39:35;29.90;99.90
55036;DHT22;40936;53.008;6.556;2022-09-21T08:44:52;29.70;99.90
55036;DHT22;40936;53.008;6.556;2022-09-21T08:47:37;30.40;99.90
55036;DHT22;40936;53.008;6.556;2022-09-21T08:50:34;30.80;99.90
55036;DHT22;40936;53.008;6.556;2022-09-21T08:55:36;31.60;99.90
55036;DHT22;40936;53.008;6.556;2022-09-21T08:58:02;31.70;99.90
55036;DHT22;40936;53.008;6.556;2022-09-21T09:00:33;31.40;99.90
55036;DHT22;40936;53.008;6.556;2022-09-21T09:03:33;31.50;99.90
55036;DHT22;40936;53.008;6.556;2022-09-21T09:06:10;32.20;99.90
55036;DHT22;40936;53.008;6.556;2022-09-21T09:08:54;32.30;99.90
55036;DHT22;40936;53.008;6.556;2022-09-21T09:11:43;31.80;99.90
55036;DHT22;40936;53.008;6.556;2022-09-21T09:14:54;30.90;99.90
55036;DHT22;40936;53.008;6.556;2022-09-21T09:17:36;30.10;99.90
55036;DHT22;40936;53.008;6.556;2022-09-21T09:22:43;31.40;99.90
55036;DHT22;40936;53.008;6.556;2022-09-21T09:25:23;31.50;99.90
55036;DHT22;40936;53.008;6.556;2022-09-21T09:27:57;30.80;99.90
55036;DHT22;40936;53.008;6.556;2022-09-21T09:30:25;30.80;99.90
55036;DHT22;40936;53.008;6.556;2022-09-21T09:35:36;31.00;99.90
55036;DHT22;40936;53.008;6.556;2022-09-21T09:52:02;31.50;99.90
55036;DHT22;40936;53.008;6.556;2022-09-21T09:54:33;32.30;99.90
55036;DHT22;40936;53.008;6.556;2022-09-21T09:57:03;32.90;99.90
55036;DHT22;40936;53.008;6.556;2022-09-21T09:59:43;32.00;99.90
55036;DHT22;40936;53.008;6.556;2022-09-21T10:02:20;32.50;99.90
55036;DHT22;40936;53.008;6.556;2022-09-21T10:05:02;32.10;99.90
55036;DHT22;40936;53.008;6.556;2022-09-21T10:07:40;31.70;99.90
55036;DHT22;40936;53.008;6.556;2022-09-21T10:16:03;32.50;99.90
55036;DHT22;40936;53.008;6.556;2022-09-21T10:18:57;33.80;99.90
55036;DHT22;40936;53.008;6.556;2022-09-21T10:21:38;34.60;99.90
55036;DHT22;40936;53.008;6.556;2022-09-21T10:24:04;35.20;99.90
55036;DHT22;40936;53.008;6.556;2022-09-21T10:26:35;34.80;99.90
55036;DHT22;40936;53.008;6.556;2022-09-21T10:34:34;32.20;99.90
55036;DHT22;40936;53.008;6.556;2022-09-21T10:37:04;32.60;99.90
55036;DHT22;40936;53.008;6.556;2022-09-21T10:39:46;33.00;99.90
55036;DHT22;40936;53.008;6.556;2022-09-21T10:42:14;32.20;99.90
55036;DHT22;40936;53.008;6.556;2022-09-21T10:44:51;31.20;99.90
55036;DHT22;40936;53.008;6.556;2022-09-21T10:50:05;29.60;99.90
55036;DHT22;40936;53.008;6.556;2022-09-21T10:52:39;29.20;99.90
55036;DHT22;40936;53.008;6.556;2022-09-21T10:55:13;29.30;99.90
55036;DHT22;40936;53.008;6.556;2022-09-21T10:57:40;30.10;99.90
55036;DHT22;40936;53.008;6.556;2022-09-21T11:02:58;31.60;99.90
55036;DHT22;40936;53.008;6.556;2022-09-21T11:05:35;32.60;99.90
55036;DHT22;40936;53.008;6.556;2022-09-21T11:08:23;32.70;99.90
55036;DHT22;40936;53.008;6.556;2022-09-21T11:10:53;32.80;99.90
55036;DHT22;40936;53.008;6.556;2022-09-21T11:13:46;33.50;99.90
55036;DHT22;40936;53.008;6.556;2022-09-21T11:16:21;33.10;99.90
55036;DHT22;40936;53.008;6.556;2022-09-21T11:19:07;33.20;99.90
55036;DHT22;40936;53.008;6.556;2022-09-21T11:21:46;33.20;99.90
55036;DHT22;40936;53.008;6.556;2022-09-21T11:26:55;31.30;99.90
55036;DHT22;40936;53.008;6.556;2022-09-21T11:29:39;31.20;99.90
55036;DHT22;40936;53.008;6.556;2022-09-21T11:38:38;34.10;99.90
55036;DHT22;40936;53.008;6.556;2022-09-21T11:41:10;34.20;99.90
55036;DHT22;40936;53.008;6.556;2022-09-21T11:49:21;35.10;99.90
55036;DHT22;40936;53.008;6.556;2022-09-21T11:55:24;33.90;99.90
55036;DHT22;40936;53.008;6.556;2022-09-21T11:58:01;30.00;99.90
55036;DHT22;40936;53.008;6.556;2022-09-21T12:00:41;29.30;99.90
55036;DHT22;40936;53.008;6.556;2022-09-21T12:04:14;27.70;99.90
55036;DHT22;40936;53.008;6.556;2022-09-21T12:09:25;26.40;99.90
55036;DHT22;40936;53.008;6.556;2022-09-21T12:14:29;25.40;99.90
55036;DHT22;40936;53.008;6.556;2022-09-21T12:17:04;25.20;99.90
55036;DHT22;40936;53.008;6.556;2022-09-21T12:19:45;24.80;99.90
55036;DHT22;40936;53.008;6.556;2022-09-21T12:22:31;24.30;99.90
55036;DHT22;40936;53.008;6.556;2022-09-21T12:30:21;23.20;99.90
55036;DHT22;40936;53.008;6.556;2022-09-21T12:35:48;22.20;99.90
55036;DHT22;40936;53.008;6.556;2022-09-21T12:38:14;23.30;99.90
55036;DHT22;40936;53.008;6.556;2022-09-21T12:40:52;22.00;99.90
55036;DHT22;40936;53.008;6.556;2022-09-21T12:43:36;23.10;99.90
55036;DHT22;40936;53.008;6.556;2022-09-21T12:46:11;23.00;99.90
55036;DHT22;40936;53.008;6.556;2022-09-21T12:48:39;23.40;99.90
55036;DHT22;40936;53.008;6.556;2022-09-21T12:53:57;22.60;99.90
55036;DHT22;40936;53.008;6.556;2022-09-21T12:56:33;22.90;99.90
55036;DHT22;40936;53.008;6.556;2022-09-21T13:01:35;23.20;99.90
55036;DHT22;40936;53.008;6.556;2022-09-21T13:04:32;23.10;99.90
55036;DHT22;40936;53.008;6.556;2022-09-21T13:09:50;23.70;99.90
55036;DHT22;40936;53.008;6.556;2022-09-21T13:12:18;23.70;99.90
55036;DHT22;40936;53.008;6.556;2022-09-21T13:14:50;23.90;99.90
55036;DHT22;40936;53.008;6.556;2022-09-21T13:17:20;23.90;99.90
55036;DHT22;40936;53.008;6.556;2022-09-21T13:19:57;24.10;99.90
55036;DHT22;40936;53.008;6.556;2022-09-21T13:22:34;24.10;99.90
55036;DHT22;40936;53.008;6.556;2022-09-21T13:25:21;24.20;99.90
55036;DHT22;40936;53.008;6.556;2022-09-21T13:38:55;24.00;99.90
55036;DHT22;40936;53.008;6.556;2022-09-21T13:41:23;23.90;99.90
55036;DHT22;40936;53.008;6.556;2022-09-21T13:52:06;23.70;99.90
55036;DHT22;40936;53.008;6.556;2022-09-21T13:54:48;23.40;99.90
55036;DHT22;40936;53.008;6.556;2022-09-21T13:57:28;23.50;99.90
55036;DHT22;40936;53.008;6.556;2022-09-21T14:02:52;23.20;99.90
55036;DHT22;40936;53.008;6.556;2022-09-21T14:05:45;23.10;99.90
55036;DHT22;40936;53.008;6.556;2022-09-21T14:10:54;22.80;99.90
55036;DHT22;40936;53.008;6.556;2022-09-21T14:13:24;22.70;99.90
55036;DHT22;40936;53.008;6.556;2022-09-21T14:15:51;22.70;99.90
55036;DHT22;40936;53.008;6.556;2022-09-21T14:18:20;22.70;99.90
55036;DHT22;40936;53.008;6.556;2022-09-21T14:21:14;22.60;99.90
55036;DHT22;40936;53.008;6.556;2022-09-21T14:31:59;21.90;99.90
55036;DHT22;40936;53.008;6.556;2022-09-21T14:34:33;21.80;99.90
55036;DHT22;40936;53.008;6.556;2022-09-21T14:37:06;21.60;99.90
55036;DHT22;40936;53.008;6.556;2022-09-21T14:39:39;21.50;99.90
55036;DHT22;40936;53.008;6.556;2022-09-21T14:42:13;21.40;99.90
55036;DHT22;40936;53.008;6.556;2022-09-21T14:44:42;21.30;99.90
55036;DHT22;40936;53.008;6.556;2022-09-21T15:01:24;21.20;99.90
55036;DHT22;40936;53.008;6.556;2022-09-21T15:07:14;21.30;99.90
55036;DHT22;40936;53.008;6.556;2022-09-21T15:10:13;21.40;99.90
55036;DHT22;40936;53.008;6.556;2022-09-21T15:18:41;21.50;99.90
55036;DHT22;40936;53.008;6.556;2022-09-21T15:21:19;21.60;99.90
55036;DHT22;40936;53.008;6.556;2022-09-21T15:23:46;21.70;99.90
55036;DHT22;40936;53.008;6.556;2022-09-21T15:26:24;21.20;99.90
55036;DHT22;40936;53.008;6.556;2022-09-21T15:29:02;21.20;99.90
55036;DHT22;40936;53.008;6.556;2022-09-21T15:31:34;21.60;99.90
55036;DHT22;40936;53.008;6.556;2022-09-21T15:34:00;21.60;99.90
55036;DHT22;40936;53.008;6.556;2022-09-21T15:36:35;21.70;99.90
55036;DHT22;40936;53.008;6.556;2022-09-21T15:39:02;21.60;99.90
55036;DHT22;40936;53.008;6.556;2022-09-21T15:41:41;21.60;99.90
55036;DHT22;40936;53.008;6.556;2022-09-21T15:44:21;21.50;99.90
55036;DHT22;40936;53.008;6.556;2022-09-21T15:46:51;21.50;99.90
55036;DHT22;40936;53.008;6.556;2022-09-21T15:49:19;21.50;99.90
55036;DHT22;40936;53.008;6.556;2022-09-21T15:54:46;21.10;99.90
55036;DHT22;40936;53.008;6.556;2022-09-21T15:57:28;21.00;99.90
55036;DHT22;40936;53.008;6.556;2022-09-21T15:59:59;20.70;99.90
55036;DHT22;40936;53.008;6.556;2022-09-21T16:02:27;20.60;99.90
55036;DHT22;40936;53.008;6.556;2022-09-21T16:04:54;20.40;99.90
55036;DHT22;40936;53.008;6.556;2022-09-21T16:07:34;20.30;99.90
55036;DHT22;40936;53.008;6.556;2022-09-21T16:10:03;20.10;99.90
55036;DHT22;40936;53.008;6.556;2022-09-21T16:12:48;20.00;99.90
55036;DHT22;40936;53.008;6.556;2022-09-21T16:15:17;19.90;99.90
55036;DHT22;40936;53.008;6.556;2022-09-21T16:18:27;19.70;99.90
55036;DHT22;40936;53.008;6.556;2022-09-21T16:20:54;19.70;99.90
55036;DHT22;40936;53.008;6.556;2022-09-21T16:23:21;19.70;99.90
55036;DHT22;40936;53.008;6.556;2022-09-21T16:25:54;19.40;99.90
55036;DHT22;40936;53.008;6.556;2022-09-21T16:28:35;19.30;99.90
55036;DHT22;40936;53.008;6.556;2022-09-21T16:31:33;19.20;99.90
55036;DHT22;40936;53.008;6.556;2022-09-21T16:34:02;19.10;99.90
55036;DHT22;40936;53.008;6.556;2022-09-21T16:36:33;19.20;99.90
55036;DHT22;40936;53.008;6.556;2022-09-21T16:39:00;19.00;99.90
55036;DHT22;40936;53.008;6.556;2022-09-21T16:41:36;18.90;99.90
55036;DHT22;40936;53.008;6.556;2022-09-21T16:44:03;18.80;99.90
55036;DHT22;40936;53.008;6.556;2022-09-21T16:46:29;18.70;99.90
55036;DHT22;40936;53.008;6.556;2022-09-21T16:48:56;18.60;99.90
55036;DHT22;40936;53.008;6.556;2022-09-21T16:51:25;18.60;99.90
55036;DHT22;40936;53.008;6.556;2022-09-21T16:53:51;18.50;99.90
55036;DHT22;40936;53.008;6.556;2022-09-21T16:56:17;18.50;99.90
55036;DHT22;40936;53.008;6.556;2022-09-21T16:58:43;18.40;99.90
55036;DHT22;40936;53.008;6.556;2022-09-21T17:01:11;18.30;99.90
55036;DHT22;40936;53.008;6.556;2022-09-21T17:03:38;18.20;99.90
55036;DHT22;40936;53.008;6.556;2022-09-21T17:06:19;18.10;99.90
55036;DHT22;40936;53.008;6.556;2022-09-21T17:08:45;18.10;99.90
55036;DHT22;40936;53.008;6.556;2022-09-21T17:11:16;18.00;99.90
55036;DHT22;40936;53.008;6.556;2022-09-21T17:13:50;17.90;99.90
55036;DHT22;40936;53.008;6.556;2022-09-21T17:16:20;17.80;99.90
55036;DHT22;40936;53.008;6.556;2022-09-21T17:18:48;18.60;99.90
55036;DHT22;40936;53.008;6.556;2022-09-21T17:21:14;17.70;99.90
55036;DHT22;40936;53.008;6.556;2022-09-21T17:23:40;17.70;99.90
55036;DHT22;40936;53.008;6.556;2022-09-21T17:26:14;17.60;99.90
55036;DHT22;40936;53.008;6.556;2022-09-21T17:28:42;17.60;99.90
55036;DHT22;40936;53.008;6.556;2022-09-21T17:31:13;17.50;99.90
55036;DHT22;40936;53.008;6.556;2022-09-21T17:33:41;17.50;99.90
55036;DHT22;40936;53.008;6.556;2022-09-21T17:36:12;17.40;99.90
55036;DHT22;40936;53.008;6.556;2022-09-21T17:38:37;17.30;99.90
55036;DHT22;40936;53.008;6.556;2022-09-21T17:41:08;17.30;99.90
55036;DHT22;40936;53.008;6.556;2022-09-21T17:46:42;17.10;99.90
55036;DHT22;40936;53.008;6.556;2022-09-21T17:49:10;17.10;99.90
55036;DHT22;40936;53.008;6.556;2022-09-21T17:51:36;16.90;99.90
55036;DHT22;40936;53.008;6.556;2022-09-21T17:54:22;16.90;99.90
55036;DHT22;40936;53.008;6.556;2022-09-21T17:59:31;16.80;99.90
55036;DHT22;40936;53.008;6.556;2022-09-21T18:01:57;16.70;99.90
55036;DHT22;40936;53.008;6.556;2022-09-21T18:04:29;16.70;99.90
55036;DHT22;40936;53.008;6.556;2022-09-21T18:06:59;16.60;99.90
55036;DHT22;40936;53.008;6.556;2022-09-21T18:09:25;16.60;99.90
55036;DHT22;40936;53.008;6.556;2022-09-21T18:14:30;16.50;99.90
55036;DHT22;40936;53.008;6.556;2022-09-21T18:25:33;16.20;99.90
55036;DHT22;40936;53.008;6.556;2022-09-21T18:28:09;16.10;99.90
55036;DHT22;40936;53.008;6.556;2022-09-21T18:30:38;16.10;99.90
55036;DHT22;40936;53.008;6.556;2022-09-21T18:33:20;16.10;99.90
55036;DHT22;40936;53.008;6.556;2022-09-21T18:36:10;16.10;99.90
55036;DHT22;40936;53.008;6.556;2022-09-21T18:44:30;15.80;99.90
55036;DHT22;40936;53.008;6.556;2022-09-21T18:47:19;15.80;99.90
55036;DHT22;40936;53.008;6.556;2022-09-21T18:54:53;15.60;99.90
55036;DHT22;40936;53.008;6.556;2022-09-21T18:57:19;15.60;99.90
55036;DHT22;40936;53.008;6.556;2022-09-21T18:59:48;15.50;99.90
55036;DHT22;40936;53.008;6.556;2022-09-21T19:02:17;15.50;99.90
55036;DHT22;40936;53.008;6.556;2022-09-21T19:04:45;15.40;99.90
55036;DHT22;40936;53.008;6.556;2022-09-21T19:07:28;15.40;99.90
55036;DHT22;40936;53.008;6.556;2022-09-21T19:15:24;15.20;99.90
55036;DHT22;40936;53.008;6.556;2022-09-21T19:26:28;15.10;99.90
55036;DHT22;40936;53.008;6.556;2022-09-21T19:28:59;15.10;99.90
55036;DHT22;40936;53.008;6.556;2022-09-21T19:31:28;15.10;99.90
55036;DHT22;40936;53.008;6.556;2022-09-21T19:33:54;15.10;99.90
55036;DHT22;40936;53.008;6.556;2022-09-21T19:36:20;15.00;99.90
55036;DHT22;40936;53.008;6.556;2022-09-21T19:38:48;15.00;99.90
55036;DHT22;40936;53.008;6.556;2022-09-21T19:47:07;14.90;99.90
55036;DHT22;40936;53.008;6.556;2022-09-21T19:49:49;14.80;99.90
55036;DHT22;40936;53.008;6.556;2022-09-21T19:52:31;14.80;99.90